sensor_id;sensor_type;location;lat;lon;timestamp;P1;durP1;ratioP1;P2;durP2;ratioP2
41693;SDS011;27377;50.666;9.150;2023-10-19T00:00:45;8.57;;;6.13;;
41693;SDS011;27377;50.666;9.150;2023-10-19T00:03:14;11.17;;;6.40;;
41693;SDS011;27377;50.666;9.150;2023-10-19T00:05:44;9.50;;;6.68;;
41693;SDS011;27377;50.666;9.150;2023-10-19T00:08:10;9.00;;;6.45;;
41693;SDS011;27377;50.666;9.150;2023-10-19T00:10:46;9.32;;;6.13;;
41693;SDS011;27377;50.666;9.150;2023-10-19T00:13:16;9.52;;;6.07;;
41693;SDS011;27377;50.666;9.150;2023-10-19T00:15:44;8.93;;;6.03;;
41693;SDS011;27377;50.666;9.150;2023-10-19T00:18:19;9.85;;;6.20;;
41693;SDS011;27377;50.666;9.150;2023-10-19T00:20:49;8.85;;;6.07;;
41693;SDS011;27377;50.666;9.150;2023-10-19T00:23:21;8.95;;;6.00;;
41693;SDS011;27377;50.666;9.150;2023-10-19T00:25:54;8.93;;;6.15;;
41693;SDS011;27377;50.666;9.150;2023-10-19T00:28:21;9.57;;;6.00;;
41693;SDS011;27377;50.666;9.150;2023-10-19T00:30:47;8.75;;;6.03;;
41693;SDS011;27377;50.666;9.150;2023-10-19T00:33:15;8.13;;;5.70;;
41693;SDS011;27377;50.666;9.150;2023-10-19T00:35:43;8.55;;;5.70;;
41693;SDS011;27377;50.666;9.150;2023-10-19T00:38:12;9.20;;;5.80;;
41693;SDS011;27377;50.666;9.150;2023-10-19T00:40:57;7.88;;;5.60;;
41693;SDS011;27377;50.666;9.150;2023-10-19T00:43:32;7.65;;;5.55;;
41693;SDS011;27377;50.666;9.150;2023-10-19T00:46:07;8.52;;;5.90;;
41693;SDS011;27377;50.666;9.150;2023-10-19T00:48:39;8.60;;;5.97;;
41693;SDS011;27377;50.666;9.150;2023-10-19T00:51:10;8.65;;;5.78;;
41693;SDS011;27377;50.666;9.150;2023-10-19T00:53:51;8.50;;;5.57;;
41693;SDS011;27377;50.666;9.150;2023-10-19T00:56:22;8.50;;;5.80;;
41693;SDS011;27377;50.666;9.150;2023-10-19T00:58:49;8.40;;;5.97;;
41693;SDS011;27377;50.666;9.150;2023-10-19T01:01:19;9.18;;;6.30;;
41693;SDS011;27377;50.666;9.150;2023-10-19T01:03:49;9.00;;;5.83;;
41693;SDS011;27377;50.666;9.150;2023-10-19T01:06:21;7.72;;;5.43;;
41693;SDS011;27377;50.666;9.150;2023-10-19T01:08:50;9.63;;;5.95;;
41693;SDS011;27377;50.666;9.150;2023-10-19T01:11:17;9.07;;;5.80;;
41693;SDS011;27377;50.666;9.150;2023-10-19T01:13:46;9.33;;;5.90;;
41693;SDS011;27377;50.666;9.150;2023-10-19T01:16:16;8.57;;;5.90;;
41693;SDS011;27377;50.666;9.150;2023-10-19T01:18:48;8.80;;;5.70;;
41693;SDS011;27377;50.666;9.150;2023-10-19T01:21:18;8.70;;;5.90;;
41693;SDS011;27377;50.666;9.150;2023-10-19T01:23:53;7.87;;;5.50;;
41693;SDS011;27377;50.666;9.150;2023-10-19T01:26:18;8.63;;;5.68;;
41693;SDS011;27377;50.666;9.150;2023-10-19T01:28:47;9.05;;;5.63;;
41693;SDS011;27377;50.666;9.150;2023-10-19T01:33:55;7.47;;;4.70;;
41693;SDS011;27377;50.666;9.150;2023-10-19T01:36:26;7.95;;;4.07;;
41693;SDS011;27377;50.666;9.150;2023-10-19T01:38:53;8.05;;;3.40;;
41693;SDS011;27377;50.666;9.150;2023-10-19T01:41:21;5.20;;;3.10;;
41693;SDS011;27377;50.666;9.150;2023-10-19T01:43:48;5.00;;;2.80;;
41693;SDS011;27377;50.666;9.150;2023-10-19T01:46:16;4.68;;;2.60;;
41693;SDS011;27377;50.666;9.150;2023-10-19T01:48:58;4.03;;;2.55;;
41693;SDS011;27377;50.666;9.150;2023-10-19T01:51:26;3.60;;;2.40;;
41693;SDS011;27377;50.666;9.150;2023-10-19T01:53:54;4.18;;;2.40;;
41693;SDS011;27377;50.666;9.150;2023-10-19T01:56:20;4.03;;;2.30;;
41693;SDS011;27377;50.666;9.150;2023-10-19T01:58:47;4.18;;;2.30;;
41693;SDS011;27377;50.666;9.150;2023-10-19T02:01:15;4.80;;;2.50;;
41693;SDS011;27377;50.666;9.150;2023-10-19T02:03:45;4.55;;;2.63;;
41693;SDS011;27377;50.666;9.150;2023-10-19T02:06:13;4.88;;;2.85;;
41693;SDS011;27377;50.666;9.150;2023-10-19T02:08:59;4.57;;;2.72;;
41693;SDS011;27377;50.666;9.150;2023-10-19T02:11:34;5.57;;;3.10;;
41693;SDS011;27377;50.666;9.150;2023-10-19T02:14:03;5.53;;;3.17;;
41693;SDS011;27377;50.666;9.150;2023-10-19T02:16:38;5.05;;;3.20;;
41693;SDS011;27377;50.666;9.150;2023-10-19T02:19:04;4.95;;;3.38;;
41693;SDS011;27377;50.666;9.150;2023-10-19T02:21:30;5.50;;;3.42;;
41693;SDS011;27377;50.666;9.150;2023-10-19T02:23:58;5.55;;;3.50;;
41693;SDS011;27377;50.666;9.150;2023-10-19T02:26:24;4.93;;;3.40;;
41693;SDS011;27377;50.666;9.150;2023-10-19T02:28:56;6.90;;;3.70;;
41693;SDS011;27377;50.666;9.150;2023-10-19T02:31:23;5.25;;;3.45;;
41693;SDS011;27377;50.666;9.150;2023-10-19T02:33:50;5.53;;;3.38;;
41693;SDS011;27377;50.666;9.150;2023-10-19T02:36:29;5.47;;;3.60;;
41693;SDS011;27377;50.666;9.150;2023-10-19T02:38:59;5.80;;;3.80;;
41693;SDS011;27377;50.666;9.150;2023-10-19T02:41:32;5.53;;;3.80;;
41693;SDS011;27377;50.666;9.150;2023-10-19T02:44:00;6.03;;;3.75;;
41693;SDS011;27377;50.666;9.150;2023-10-19T02:46:33;6.47;;;4.30;;
41693;SDS011;27377;50.666;9.150;2023-10-19T02:49:05;9.52;;;4.90;;
41693;SDS011;27377;50.666;9.150;2023-10-19T02:51:41;7.40;;;4.93;;
41693;SDS011;27377;50.666;9.150;2023-10-19T02:54:11;7.75;;;5.10;;
41693;SDS011;27377;50.666;9.150;2023-10-19T02:56:48;7.78;;;5.30;;
41693;SDS011;27377;50.666;9.150;2023-10-19T02:59:17;8.82;;;5.85;;
41693;SDS011;27377;50.666;9.150;2023-10-19T03:01:47;7.72;;;5.45;;
41693;SDS011;27377;50.666;9.150;2023-10-19T03:04:13;8.82;;;6.07;;
41693;SDS011;27377;50.666;9.150;2023-10-19T03:06:40;9.95;;;6.57;;
41693;SDS011;27377;50.666;9.150;2023-10-19T03:09:06;9.55;;;6.57;;
41693;SDS011;27377;50.666;9.150;2023-10-19T03:11:41;10.80;;;7.18;;
41693;SDS011;27377;50.666;9.150;2023-10-19T03:14:09;10.18;;;7.10;;
41693;SDS011;27377;50.666;9.150;2023-10-19T03:16:39;10.60;;;7.38;;
41693;SDS011;27377;50.666;9.150;2023-10-19T03:19:07;12.57;;;7.00;;
41693;SDS011;27377;50.666;9.150;2023-10-19T03:21:34;12.73;;;7.88;;
41693;SDS011;27377;50.666;9.150;2023-10-19T03:24:09;12.27;;;8.13;;
41693;SDS011;27377;50.666;9.150;2023-10-19T03:26:40;12.18;;;8.25;;
41693;SDS011;27377;50.666;9.150;2023-10-19T03:29:13;13.13;;;9.03;;
41693;SDS011;27377;50.666;9.150;2023-10-19T03:31:40;14.10;;;9.27;;
41693;SDS011;27377;50.666;9.150;2023-10-19T03:34:13;14.73;;;9.93;;
41693;SDS011;27377;50.666;9.150;2023-10-19T03:36:41;14.45;;;9.77;;
41693;SDS011;27377;50.666;9.150;2023-10-19T03:39:07;16.13;;;9.95;;
41693;SDS011;27377;50.666;9.150;2023-10-19T03:41:39;15.27;;;9.60;;
41693;SDS011;27377;50.666;9.150;2023-10-19T03:44:07;15.77;;;10.32;;
41693;SDS011;27377;50.666;9.150;2023-10-19T03:46:44;16.20;;;10.38;;
41693;SDS011;27377;50.666;9.150;2023-10-19T03:49:22;15.68;;;10.60;;
41693;SDS011;27377;50.666;9.150;2023-10-19T03:51:48;16.05;;;10.55;;
41693;SDS011;27377;50.666;9.150;2023-10-19T03:54:24;16.05;;;10.77;;
41693;SDS011;27377;50.666;9.150;2023-10-19T03:56:52;17.15;;;10.93;;
41693;SDS011;27377;50.666;9.150;2023-10-19T03:59:17;17.98;;;10.77;;
41693;SDS011;27377;50.666;9.150;2023-10-19T04:01:43;16.90;;;10.68;;
41693;SDS011;27377;50.666;9.150;2023-10-19T04:04:09;17.53;;;10.80;;
41693;SDS011;27377;50.666;9.150;2023-10-19T04:06:35;17.30;;;11.13;;
41693;SDS011;27377;50.666;9.150;2023-10-19T04:09:02;17.58;;;11.80;;
41693;SDS011;27377;50.666;9.150;2023-10-19T04:11:30;17.77;;;11.88;;
41693;SDS011;27377;50.666;9.150;2023-10-19T04:14:13;18.23;;;11.90;;
41693;SDS011;27377;50.666;9.150;2023-10-19T04:16:40;18.88;;;11.88;;
41693;SDS011;27377;50.666;9.150;2023-10-19T04:19:08;20.15;;;13.02;;
41693;SDS011;27377;50.666;9.150;2023-10-19T04:21:38;19.73;;;12.38;;
41693;SDS011;27377;50.666;9.150;2023-10-19T04:24:08;21.73;;;12.90;;
41693;SDS011;27377;50.666;9.150;2023-10-19T04:26:34;19.73;;;12.20;;
41693;SDS011;27377;50.666;9.150;2023-10-19T04:29:06;19.55;;;12.27;;
41693;SDS011;27377;50.666;9.150;2023-10-19T04:31:36;20.23;;;13.03;;
41693;SDS011;27377;50.666;9.150;2023-10-19T04:34:14;19.48;;;12.10;;
41693;SDS011;27377;50.666;9.150;2023-10-19T04:36:41;20.42;;;13.10;;
41693;SDS011;27377;50.666;9.150;2023-10-19T04:39:08;20.40;;;12.90;;
41693;SDS011;27377;50.666;9.150;2023-10-19T04:41:39;20.13;;;13.23;;
41693;SDS011;27377;50.666;9.150;2023-10-19T04:44:05;20.13;;;13.10;;
41693;SDS011;27377;50.666;9.150;2023-10-19T04:46:33;22.13;;;13.97;;
41693;SDS011;27377;50.666;9.150;2023-10-19T04:48:59;23.05;;;13.57;;
41693;SDS011;27377;50.666;9.150;2023-10-19T04:51:25;23.30;;;14.05;;
41693;SDS011;27377;50.666;9.150;2023-10-19T04:53:52;23.63;;;14.43;;
41693;SDS011;27377;50.666;9.150;2023-10-19T04:56:17;23.17;;;14.60;;
41693;SDS011;27377;50.666;9.150;2023-10-19T04:58:43;22.93;;;15.00;;
41693;SDS011;27377;50.666;9.150;2023-10-19T05:01:08;25.33;;;14.73;;
41693;SDS011;27377;50.666;9.150;2023-10-19T05:03:37;25.52;;;14.85;;
41693;SDS011;27377;50.666;9.150;2023-10-19T05:06:02;22.70;;;14.77;;
41693;SDS011;27377;50.666;9.150;2023-10-19T05:08:28;22.63;;;15.07;;
41693;SDS011;27377;50.666;9.150;2023-10-19T05:10:55;24.30;;;15.07;;
41693;SDS011;27377;50.666;9.150;2023-10-19T05:13:24;24.97;;;15.60;;
41693;SDS011;27377;50.666;9.150;2023-10-19T05:15:51;25.37;;;15.17;;
41693;SDS011;27377;50.666;9.150;2023-10-19T05:18:21;24.17;;;14.20;;
41693;SDS011;27377;50.666;9.150;2023-10-19T05:20:47;21.88;;;14.48;;
41693;SDS011;27377;50.666;9.150;2023-10-19T05:23:13;23.85;;;14.98;;
41693;SDS011;27377;50.666;9.150;2023-10-19T05:25:39;24.48;;;14.20;;
41693;SDS011;27377;50.666;9.150;2023-10-19T05:28:06;22.08;;;14.75;;
41693;SDS011;27377;50.666;9.150;2023-10-19T05:30:32;25.60;;;14.68;;
41693;SDS011;27377;50.666;9.150;2023-10-19T05:32:59;23.67;;;14.52;;
41693;SDS011;27377;50.666;9.150;2023-10-19T05:35:26;23.33;;;14.45;;
41693;SDS011;27377;50.666;9.150;2023-10-19T05:37:54;23.55;;;14.95;;
41693;SDS011;27377;50.666;9.150;2023-10-19T05:40:22;22.60;;;14.02;;
41693;SDS011;27377;50.666;9.150;2023-10-19T05:42:49;22.67;;;14.43;;
41693;SDS011;27377;50.666;9.150;2023-10-19T05:45:14;23.87;;;14.57;;
41693;SDS011;27377;50.666;9.150;2023-10-19T05:47:41;22.80;;;14.18;;
41693;SDS011;27377;50.666;9.150;2023-10-19T05:50:08;20.48;;;14.00;;
41693;SDS011;27377;50.666;9.150;2023-10-19T05:52:39;21.70;;;13.95;;
41693;SDS011;27377;50.666;9.150;2023-10-19T05:55:05;21.67;;;13.67;;
41693;SDS011;27377;50.666;9.150;2023-10-19T05:57:31;21.48;;;14.10;;
41693;SDS011;27377;50.666;9.150;2023-10-19T05:59:56;20.83;;;13.77;;
41693;SDS011;27377;50.666;9.150;2023-10-19T06:02:22;20.60;;;13.70;;
41693;SDS011;27377;50.666;9.150;2023-10-19T06:04:47;22.48;;;13.93;;
41693;SDS011;27377;50.666;9.150;2023-10-19T06:07:13;22.15;;;13.90;;
41693;SDS011;27377;50.666;9.150;2023-10-19T06:09:38;19.95;;;13.57;;
41693;SDS011;27377;50.666;9.150;2023-10-19T06:12:04;20.27;;;13.68;;
41693;SDS011;27377;50.666;9.150;2023-10-19T06:14:30;19.80;;;13.43;;
41693;SDS011;27377;50.666;9.150;2023-10-19T06:16:56;20.60;;;13.70;;
41693;SDS011;27377;50.666;9.150;2023-10-19T06:19:21;19.90;;;13.43;;
41693;SDS011;27377;50.666;9.150;2023-10-19T06:21:49;19.48;;;12.80;;
41693;SDS011;27377;50.666;9.150;2023-10-19T06:24:15;20.60;;;13.77;;
41693;SDS011;27377;50.666;9.150;2023-10-19T06:26:41;19.88;;;13.63;;
41693;SDS011;27377;50.666;9.150;2023-10-19T06:29:08;20.93;;;14.13;;
41693;SDS011;27377;50.666;9.150;2023-10-19T06:31:33;20.37;;;14.03;;
41693;SDS011;27377;50.666;9.150;2023-10-19T06:33:59;22.87;;;14.90;;
41693;SDS011;27377;50.666;9.150;2023-10-19T06:36:25;22.65;;;14.98;;
41693;SDS011;27377;50.666;9.150;2023-10-19T06:38:54;25.20;;;16.02;;
41693;SDS011;27377;50.666;9.150;2023-10-19T06:41:19;24.17;;;15.57;;
41693;SDS011;27377;50.666;9.150;2023-10-19T06:43:46;20.90;;;15.02;;
41693;SDS011;27377;50.666;9.150;2023-10-19T06:46:11;22.75;;;15.43;;
41693;SDS011;27377;50.666;9.150;2023-10-19T06:48:38;22.30;;;15.03;;
41693;SDS011;27377;50.666;9.150;2023-10-19T06:51:04;21.80;;;14.93;;
41693;SDS011;27377;50.666;9.150;2023-10-19T06:53:31;22.70;;;15.02;;
41693;SDS011;27377;50.666;9.150;2023-10-19T06:55:58;21.05;;;14.65;;
41693;SDS011;27377;50.666;9.150;2023-10-19T06:58:24;22.25;;;14.77;;
41693;SDS011;27377;50.666;9.150;2023-10-19T07:00:51;23.25;;;15.13;;
41693;SDS011;27377;50.666;9.150;2023-10-19T07:03:32;21.73;;;14.65;;
41693;SDS011;27377;50.666;9.150;2023-10-19T07:05:58;21.65;;;14.88;;
41693;SDS011;27377;50.666;9.150;2023-10-19T07:08:24;22.33;;;14.50;;
41693;SDS011;27377;50.666;9.150;2023-10-19T07:10:52;20.33;;;13.90;;
41693;SDS011;27377;50.666;9.150;2023-10-19T07:13:18;20.92;;;13.45;;
41693;SDS011;27377;50.666;9.150;2023-10-19T07:15:45;18.95;;;13.85;;
41693;SDS011;27377;50.666;9.150;2023-10-19T07:18:12;19.38;;;12.82;;
41693;SDS011;27377;50.666;9.150;2023-10-19T07:20:39;20.50;;;12.88;;
41693;SDS011;27377;50.666;9.150;2023-10-19T07:23:04;17.40;;;12.60;;
41693;SDS011;27377;50.666;9.150;2023-10-19T07:25:51;17.92;;;11.90;;
41693;SDS011;27377;50.666;9.150;2023-10-19T07:28:24;17.35;;;11.65;;
41693;SDS011;27377;50.666;9.150;2023-10-19T07:30:51;16.15;;;11.23;;
41693;SDS011;27377;50.666;9.150;2023-10-19T07:33:17;18.20;;;11.00;;
41693;SDS011;27377;50.666;9.150;2023-10-19T07:35:43;18.17;;;11.60;;
41693;SDS011;27377;50.666;9.150;2023-10-19T07:38:12;17.38;;;11.32;;
41693;SDS011;27377;50.666;9.150;2023-10-19T07:40:39;15.90;;;11.02;;
41693;SDS011;27377;50.666;9.150;2023-10-19T07:43:04;15.45;;;10.70;;
41693;SDS011;27377;50.666;9.150;2023-10-19T07:45:31;14.82;;;10.70;;
41693;SDS011;27377;50.666;9.150;2023-10-19T07:47:57;16.65;;;11.15;;
41693;SDS011;27377;50.666;9.150;2023-10-19T07:50:23;16.43;;;11.17;;
41693;SDS011;27377;50.666;9.150;2023-10-19T07:52:52;15.65;;;10.50;;
41693;SDS011;27377;50.666;9.150;2023-10-19T07:55:20;15.60;;;10.30;;
41693;SDS011;27377;50.666;9.150;2023-10-19T07:57:50;17.02;;;10.52;;
41693;SDS011;27377;50.666;9.150;2023-10-19T08:00:16;15.32;;;10.35;;
41693;SDS011;27377;50.666;9.150;2023-10-19T08:02:45;16.43;;;10.30;;
41693;SDS011;27377;50.666;9.150;2023-10-19T08:05:11;16.40;;;10.93;;
41693;SDS011;27377;50.666;9.150;2023-10-19T08:07:38;15.57;;;10.52;;
41693;SDS011;27377;50.666;9.150;2023-10-19T08:10:05;16.33;;;10.27;;
41693;SDS011;27377;50.666;9.150;2023-10-19T08:12:34;17.50;;;10.57;;
41693;SDS011;27377;50.666;9.150;2023-10-19T08:15:00;15.70;;;10.45;;
41693;SDS011;27377;50.666;9.150;2023-10-19T08:17:26;19.73;;;9.98;;
41693;SDS011;27377;50.666;9.150;2023-10-19T08:19:52;15.13;;;9.85;;
41693;SDS011;27377;50.666;9.150;2023-10-19T08:22:18;15.90;;;9.70;;
41693;SDS011;27377;50.666;9.150;2023-10-19T08:24:44;14.77;;;9.38;;
41693;SDS011;27377;50.666;9.150;2023-10-19T08:27:11;14.13;;;9.70;;
41693;SDS011;27377;50.666;9.150;2023-10-19T08:29:38;13.50;;;9.50;;
41693;SDS011;27377;50.666;9.150;2023-10-19T08:32:03;15.70;;;9.65;;
41693;SDS011;27377;50.666;9.150;2023-10-19T08:34:29;14.87;;;9.70;;
41693;SDS011;27377;50.666;9.150;2023-10-19T08:37:00;15.73;;;10.10;;
41693;SDS011;27377;50.666;9.150;2023-10-19T08:39:27;13.98;;;9.32;;
41693;SDS011;27377;50.666;9.150;2023-10-19T08:41:53;16.00;;;9.23;;
41693;SDS011;27377;50.666;9.150;2023-10-19T08:44:20;14.88;;;9.75;;
41693;SDS011;27377;50.666;9.150;2023-10-19T08:46:46;14.60;;;9.07;;
41693;SDS011;27377;50.666;9.150;2023-10-19T08:49:16;13.88;;;9.55;;
41693;SDS011;27377;50.666;9.150;2023-10-19T08:51:45;14.10;;;9.55;;
41693;SDS011;27377;50.666;9.150;2023-10-19T08:54:12;13.68;;;9.32;;
41693;SDS011;27377;50.666;9.150;2023-10-19T08:56:38;13.32;;;9.20;;
41693;SDS011;27377;50.666;9.150;2023-10-19T08:59:10;15.55;;;9.38;;
41693;SDS011;27377;50.666;9.150;2023-10-19T09:01:37;12.45;;;8.95;;
41693;SDS011;27377;50.666;9.150;2023-10-19T09:04:03;12.23;;;8.30;;
41693;SDS011;27377;50.666;9.150;2023-10-19T09:06:35;14.02;;;8.70;;
41693;SDS011;27377;50.666;9.150;2023-10-19T09:09:11;14.30;;;8.68;;
41693;SDS011;27377;50.666;9.150;2023-10-19T09:11:46;15.32;;;8.43;;
41693;SDS011;27377;50.666;9.150;2023-10-19T09:14:13;11.83;;;8.13;;
41693;SDS011;27377;50.666;9.150;2023-10-19T09:16:53;13.13;;;8.23;;
41693;SDS011;27377;50.666;9.150;2023-10-19T09:19:37;12.10;;;8.10;;
41693;SDS011;27377;50.666;9.150;2023-10-19T09:22:04;12.15;;;7.65;;
41693;SDS011;27377;50.666;9.150;2023-10-19T09:24:41;13.32;;;8.00;;
41693;SDS011;27377;50.666;9.150;2023-10-19T09:27:07;12.57;;;7.68;;
41693;SDS011;27377;50.666;9.150;2023-10-19T09:29:33;11.27;;;7.60;;
41693;SDS011;27377;50.666;9.150;2023-10-19T09:31:59;11.68;;;8.02;;
41693;SDS011;27377;50.666;9.150;2023-10-19T09:34:29;11.38;;;7.20;;
41693;SDS011;27377;50.666;9.150;2023-10-19T09:37:01;11.67;;;7.60;;
41693;SDS011;27377;50.666;9.150;2023-10-19T09:39:28;12.27;;;7.90;;
41693;SDS011;27377;50.666;9.150;2023-10-19T09:42:01;9.82;;;7.30;;
41693;SDS011;27377;50.666;9.150;2023-10-19T09:44:43;12.65;;;7.50;;
41693;SDS011;27377;50.666;9.150;2023-10-19T09:47:22;13.00;;;7.32;;
41693;SDS011;27377;50.666;9.150;2023-10-19T09:50:04;11.68;;;6.80;;
41693;SDS011;27377;50.666;9.150;2023-10-19T09:52:31;10.77;;;7.10;;
41693;SDS011;27377;50.666;9.150;2023-10-19T09:55:09;12.13;;;7.05;;
41693;SDS011;27377;50.666;9.150;2023-10-19T09:57:58;12.45;;;6.60;;
41693;SDS011;27377;50.666;9.150;2023-10-19T10:00:29;12.80;;;6.63;;
41693;SDS011;27377;50.666;9.150;2023-10-19T10:02:59;12.25;;;6.80;;
41693;SDS011;27377;50.666;9.150;2023-10-19T10:10:43;11.50;;;6.95;;
41693;SDS011;27377;50.666;9.150;2023-10-19T10:15:49;12.00;;;6.20;;
41693;SDS011;27377;50.666;9.150;2023-10-19T10:18:20;13.00;;;6.68;;
41693;SDS011;27377;50.666;9.150;2023-10-19T10:23:50;12.15;;;5.97;;
41693;SDS011;27377;50.666;9.150;2023-10-19T10:26:18;10.77;;;5.75;;
41693;SDS011;27377;50.666;9.150;2023-10-19T10:28:48;12.68;;;5.95;;
41693;SDS011;27377;50.666;9.150;2023-10-19T10:31:33;11.88;;;5.93;;
41693;SDS011;27377;50.666;9.150;2023-10-19T10:34:05;11.20;;;5.30;;
41693;SDS011;27377;50.666;9.150;2023-10-19T10:39:28;10.55;;;5.10;;
41693;SDS011;27377;50.666;9.150;2023-10-19T10:41:59;9.50;;;5.05;;
41693;SDS011;27377;50.666;9.150;2023-10-19T10:47:21;11.32;;;5.30;;
41693;SDS011;27377;50.666;9.150;2023-10-19T10:55:10;11.27;;;5.38;;
41693;SDS011;27377;50.666;9.150;2023-10-19T10:57:36;10.60;;;5.20;;
41693;SDS011;27377;50.666;9.150;2023-10-19T11:00:13;9.75;;;4.93;;
41693;SDS011;27377;50.666;9.150;2023-10-19T11:02:43;11.23;;;5.00;;
41693;SDS011;27377;50.666;9.150;2023-10-19T11:05:13;11.57;;;5.55;;
41693;SDS011;27377;50.666;9.150;2023-10-19T11:07:40;9.02;;;5.13;;
41693;SDS011;27377;50.666;9.150;2023-10-19T11:10:28;9.70;;;4.60;;
41693;SDS011;27377;50.666;9.150;2023-10-19T11:13:01;10.38;;;4.75;;
41693;SDS011;27377;50.666;9.150;2023-10-19T11:17:58;10.55;;;5.15;;
41693;SDS011;27377;50.666;9.150;2023-10-19T11:20:24;11.97;;;5.10;;
41693;SDS011;27377;50.666;9.150;2023-10-19T11:22:52;7.90;;;4.80;;
41693;SDS011;27377;50.666;9.150;2023-10-19T11:25:21;9.88;;;4.72;;
41693;SDS011;27377;50.666;9.150;2023-10-19T11:27:47;11.18;;;4.80;;
41693;SDS011;27377;50.666;9.150;2023-10-19T11:30:13;9.43;;;4.50;;
41693;SDS011;27377;50.666;9.150;2023-10-19T11:32:47;10.93;;;5.07;;
41693;SDS011;27377;50.666;9.150;2023-10-19T11:35:13;9.00;;;4.53;;
41693;SDS011;27377;50.666;9.150;2023-10-19T11:40:14;11.80;;;5.18;;
41693;SDS011;27377;50.666;9.150;2023-10-19T11:42:40;12.98;;;4.97;;
41693;SDS011;27377;50.666;9.150;2023-10-19T11:45:06;11.15;;;4.93;;
41693;SDS011;27377;50.666;9.150;2023-10-19T11:47:32;11.15;;;5.18;;
41693;SDS011;27377;50.666;9.150;2023-10-19T11:49:57;11.13;;;5.20;;
41693;SDS011;27377;50.666;9.150;2023-10-19T11:52:23;12.40;;;4.90;;
41693;SDS011;27377;50.666;9.150;2023-10-19T11:54:48;12.20;;;4.70;;
41693;SDS011;27377;50.666;9.150;2023-10-19T11:57:14;9.48;;;4.90;;
41693;SDS011;27377;50.666;9.150;2023-10-19T11:59:39;9.63;;;4.80;;
41693;SDS011;27377;50.666;9.150;2023-10-19T12:02:09;9.85;;;4.60;;
41693;SDS011;27377;50.666;9.150;2023-10-19T12:04:34;9.93;;;4.60;;
41693;SDS011;27377;50.666;9.150;2023-10-19T12:07:01;10.10;;;4.53;;
41693;SDS011;27377;50.666;9.150;2023-10-19T12:09:28;11.32;;;4.38;;
41693;SDS011;27377;50.666;9.150;2023-10-19T12:11:55;10.15;;;4.65;;
41693;SDS011;27377;50.666;9.150;2023-10-19T12:14:20;12.13;;;5.97;;
41693;SDS011;27377;50.666;9.150;2023-10-19T12:16:47;10.75;;;5.30;;
41693;SDS011;27377;50.666;9.150;2023-10-19T12:19:13;11.30;;;5.22;;
41693;SDS011;27377;50.666;9.150;2023-10-19T12:21:40;10.53;;;4.90;;
41693;SDS011;27377;50.666;9.150;2023-10-19T12:24:09;9.80;;;5.00;;
41693;SDS011;27377;50.666;9.150;2023-10-19T12:26:35;9.50;;;5.07;;
41693;SDS011;27377;50.666;9.150;2023-10-19T12:29:01;11.07;;;5.03;;
41693;SDS011;27377;50.666;9.150;2023-10-19T12:31:28;11.07;;;5.15;;
41693;SDS011;27377;50.666;9.150;2023-10-19T12:33:55;12.30;;;5.13;;
41693;SDS011;27377;50.666;9.150;2023-10-19T12:36:21;10.48;;;4.93;;
41693;SDS011;27377;50.666;9.150;2023-10-19T12:38:46;10.47;;;4.80;;
41693;SDS011;27377;50.666;9.150;2023-10-19T12:41:12;12.40;;;4.97;;
41693;SDS011;27377;50.666;9.150;2023-10-19T12:43:39;10.50;;;4.67;;
41693;SDS011;27377;50.666;9.150;2023-10-19T12:46:04;8.70;;;4.30;;
41693;SDS011;27377;50.666;9.150;2023-10-19T12:48:33;10.00;;;4.37;;
41693;SDS011;27377;50.666;9.150;2023-10-19T12:51:00;8.73;;;4.00;;
41693;SDS011;27377;50.666;9.150;2023-10-19T12:53:28;10.15;;;3.80;;
41693;SDS011;27377;50.666;9.150;2023-10-19T12:55:54;10.80;;;3.90;;
41693;SDS011;27377;50.666;9.150;2023-10-19T12:58:19;10.83;;;3.67;;
41693;SDS011;27377;50.666;9.150;2023-10-19T13:00:46;8.23;;;3.58;;
41693;SDS011;27377;50.666;9.150;2023-10-19T13:03:13;8.38;;;3.78;;
41693;SDS011;27377;50.666;9.150;2023-10-19T13:05:41;8.83;;;3.50;;
41693;SDS011;27377;50.666;9.150;2023-10-19T13:08:08;9.55;;;3.28;;
41693;SDS011;27377;50.666;9.150;2023-10-19T13:10:34;9.10;;;3.75;;
41693;SDS011;27377;50.666;9.150;2023-10-19T13:13:03;9.70;;;3.45;;
41693;SDS011;27377;50.666;9.150;2023-10-19T13:15:33;7.13;;;3.15;;
41693;SDS011;27377;50.666;9.150;2023-10-19T13:18:00;8.27;;;2.90;;
41693;SDS011;27377;50.666;9.150;2023-10-19T13:20:26;11.63;;;3.45;;
41693;SDS011;27377;50.666;9.150;2023-10-19T13:22:53;8.55;;;3.13;;
41693;SDS011;27377;50.666;9.150;2023-10-19T13:25:21;10.18;;;3.10;;
41693;SDS011;27377;50.666;9.150;2023-10-19T13:28:04;6.50;;;3.03;;
41693;SDS011;27377;50.666;9.150;2023-10-19T13:30:37;10.60;;;3.40;;
41693;SDS011;27377;50.666;9.150;2023-10-19T13:33:06;10.77;;;3.93;;
41693;SDS011;27377;50.666;9.150;2023-10-19T13:35:34;8.83;;;3.50;;
41693;SDS011;27377;50.666;9.150;2023-10-19T13:38:04;9.80;;;3.67;;
41693;SDS011;27377;50.666;9.150;2023-10-19T13:40:31;7.47;;;3.80;;
41693;SDS011;27377;50.666;9.150;2023-10-19T13:42:57;10.40;;;4.00;;
41693;SDS011;27377;50.666;9.150;2023-10-19T13:45:26;8.88;;;4.15;;
41693;SDS011;27377;50.666;9.150;2023-10-19T13:47:52;11.18;;;3.83;;
41693;SDS011;27377;50.666;9.150;2023-10-19T13:50:23;8.45;;;3.85;;
41693;SDS011;27377;50.666;9.150;2023-10-19T13:52:51;8.40;;;4.15;;
41693;SDS011;27377;50.666;9.150;2023-10-19T13:55:18;9.13;;;3.93;;
41693;SDS011;27377;50.666;9.150;2023-10-19T13:57:45;10.95;;;4.10;;
41693;SDS011;27377;50.666;9.150;2023-10-19T14:00:12;10.43;;;4.17;;
41693;SDS011;27377;50.666;9.150;2023-10-19T14:02:45;10.57;;;4.15;;
41693;SDS011;27377;50.666;9.150;2023-10-19T14:05:12;9.45;;;4.32;;
41693;SDS011;27377;50.666;9.150;2023-10-19T14:07:39;9.82;;;4.20;;
41693;SDS011;27377;50.666;9.150;2023-10-19T14:10:05;9.43;;;4.03;;
41693;SDS011;27377;50.666;9.150;2023-10-19T14:12:32;11.50;;;4.05;;
41693;SDS011;27377;50.666;9.150;2023-10-19T14:14:58;9.57;;;3.97;;
41693;SDS011;27377;50.666;9.150;2023-10-19T14:17:23;10.23;;;4.10;;
41693;SDS011;27377;50.666;9.150;2023-10-19T14:19:50;8.63;;;3.90;;
41693;SDS011;27377;50.666;9.150;2023-10-19T14:22:16;8.33;;;3.60;;
41693;SDS011;27377;50.666;9.150;2023-10-19T14:24:42;9.32;;;3.80;;
41693;SDS011;27377;50.666;9.150;2023-10-19T14:27:10;9.18;;;3.90;;
41693;SDS011;27377;50.666;9.150;2023-10-19T14:29:35;10.77;;;3.90;;
41693;SDS011;27377;50.666;9.150;2023-10-19T14:32:01;9.97;;;3.97;;
41693;SDS011;27377;50.666;9.150;2023-10-19T14:34:28;10.02;;;4.03;;
41693;SDS011;27377;50.666;9.150;2023-10-19T14:36:54;10.83;;;4.30;;
41693;SDS011;27377;50.666;9.150;2023-10-19T14:39:19;12.18;;;4.22;;
41693;SDS011;27377;50.666;9.150;2023-10-19T14:41:45;11.03;;;4.60;;
41693;SDS011;27377;50.666;9.150;2023-10-19T14:44:11;11.30;;;4.50;;
41693;SDS011;27377;50.666;9.150;2023-10-19T14:46:37;9.87;;;4.70;;
41693;SDS011;27377;50.666;9.150;2023-10-19T14:49:02;11.30;;;5.00;;
41693;SDS011;27377;50.666;9.150;2023-10-19T14:51:28;12.43;;;5.30;;
41693;SDS011;27377;50.666;9.150;2023-10-19T14:53:53;8.93;;;5.00;;
41693;SDS011;27377;50.666;9.150;2023-10-19T14:56:19;11.67;;;4.80;;
41693;SDS011;27377;50.666;9.150;2023-10-19T14:58:46;11.25;;;5.20;;
41693;SDS011;27377;50.666;9.150;2023-10-19T15:01:12;10.02;;;4.93;;
41693;SDS011;27377;50.666;9.150;2023-10-19T15:03:42;10.32;;;5.00;;
41693;SDS011;27377;50.666;9.150;2023-10-19T15:06:08;9.67;;;4.90;;
41693;SDS011;27377;50.666;9.150;2023-10-19T15:08:33;9.07;;;4.80;;
41693;SDS011;27377;50.666;9.150;2023-10-19T15:10:59;7.53;;;4.18;;
41693;SDS011;27377;50.666;9.150;2023-10-19T15:13:25;10.32;;;5.00;;